createdAt,value
2023-01-13T00:01:45.588Z,100432.39
2023-01-13T00:04:15.067Z,100430.09
2023-01-13T00:06:44.868Z,100426.03
2023-01-13T00:09:14.669Z,100424.45
2023-01-13T00:11:44.526Z,100437.65
2023-01-13T00:14:14.185Z,100433.56
2023-01-13T00:16:43.987Z,100429.17
2023-01-13T00:19:13.847Z,100429.91
2023-01-13T00:21:44.004Z,100433.26
2023-01-13T00:24:13.771Z,100429.05
2023-01-13T00:26:43.590Z,100419.94
2023-01-13T00:29:13.668Z,100419.75
2023-01-13T00:31:43.652Z,100408.01
2023-01-13T00:34:13.233Z,100418.26
2023-01-13T00:36:43.089Z,100400.02
2023-01-13T00:39:12.864Z,100400.02
2023-01-13T00:42:00.213Z,100409.03
2023-01-13T00:44:30.018Z,100414.26
2023-01-13T00:46:59.814Z,100416.56
2023-01-13T00:49:29.879Z,100427.78
2023-01-13T00:51:59.975Z,100424.00
2023-01-13T00:54:29.815Z,100428.46
2023-01-13T00:56:59.608Z,100421.05
2023-01-13T00:59:29.383Z,100419.18
2023-01-13T01:01:59.304Z,100409.16
2023-01-13T01:04:29.169Z,100413.37
2023-01-13T01:06:58.919Z,100413.37
2023-01-13T01:09:30.332Z,100418.50
2023-01-13T01:12:02.289Z,100413.55
2023-01-13T01:14:32.062Z,100411.98
2023-01-13T01:17:01.924Z,100416.44
2023-01-13T01:19:31.685Z,100404.56
2023-01-13T01:22:01.696Z,100404.56
2023-01-13T01:24:31.637Z,100406.78
2023-01-13T01:27:01.844Z,100406.72
2023-01-13T01:29:31.630Z,100405.04
2023-01-13T01:32:01.496Z,100402.83
2023-01-13T01:34:31.411Z,100403.22
2023-01-13T01:37:01.275Z,100404.89
2023-01-13T01:39:31.046Z,100408.81
2023-01-13T01:42:18.827Z,100402.59
2023-01-13T01:44:57.227Z,100404.91
2023-01-13T01:47:28.940Z,100402.05
2023-01-13T01:50:01.695Z,100397.75
2023-01-13T01:52:40.869Z,100406.83
2023-01-13T01:55:13.414Z,100395.88
2023-01-13T01:57:57.696Z,100405.12
2023-01-13T02:00:29.258Z,100405.12
2023-01-13T02:03:01.365Z,100397.97
2023-01-13T02:05:31.178Z,100390.83
2023-01-13T02:08:02.423Z,100397.42
2023-01-13T02:10:32.589Z,100406.48
2023-01-13T02:13:05.481Z,100408.95
2023-01-13T02:16:04.132Z,100409.11
2023-01-13T02:18:54.969Z,100426.84
2023-01-13T02:21:51.639Z,100437.48
2023-01-13T02:24:55.559Z,100420.16
2023-01-13T02:27:36.892Z,100417.58
2023-01-13T02:30:33.968Z,100403.88
2023-01-13T02:33:18.692Z,100404.67
2023-01-13T02:36:06.064Z,100397.95
2023-01-13T02:38:44.703Z,100400.98
2023-01-13T02:41:35.056Z,100402.76
2023-01-13T02:44:10.592Z,100405.38
2023-01-13T02:47:10.676Z,100401.98
2023-01-13T02:49:43.212Z,100401.92
2023-01-13T02:52:16.052Z,100391.16
2023-01-13T02:54:48.929Z,100379.02
2023-01-13T02:57:21.588Z,100379.55
2023-01-13T02:59:54.210Z,100367.16
2023-01-13T03:02:25.992Z,100359.92
2023-01-13T03:05:00.341Z,100350.20
2023-01-13T03:07:42.089Z,100362.27
2023-01-13T03:10:29.931Z,100360.41
2023-01-13T03:13:02.883Z,100375.05
2023-01-13T03:15:40.181Z,100378.84
2023-01-13T03:18:29.296Z,100360.27
2023-01-13T03:21:02.085Z,100355.50
2023-01-13T03:23:37.794Z,100347.77
2023-01-13T03:26:09.085Z,100346.75
2023-01-13T03:28:42.014Z,100348.94
2023-01-13T03:31:14.828Z,100340.73
2023-01-13T03:33:47.315Z,100340.83
2023-01-13T03:36:18.897Z,100350.88
2023-01-13T03:38:51.688Z,100337.88
2023-01-13T03:41:40.784Z,100331.41
2023-01-13T03:44:22.713Z,100343.44
2023-01-13T03:47:09.848Z,100345.39
2023-01-13T03:49:45.129Z,100337.04
2023-01-13T03:52:17.760Z,100336.84
2023-01-13T03:54:53.386Z,100353.07
2023-01-13T03:57:25.897Z,100346.19
2023-01-13T03:59:58.714Z,100350.69
2023-01-13T04:02:43.363Z,100346.79
2023-01-13T04:05:13.948Z,100349.36
2023-01-13T04:08:15.111Z,100342.41
2023-01-13T04:10:52.948Z,100346.02
2023-01-13T04:13:25.739Z,100349.67
2023-01-13T04:15:55.820Z,100340.80
2023-01-13T04:18:30.632Z,100345.56
2023-01-13T04:21:02.268Z,100347.94
2023-01-13T04:23:34.590Z,100355.16
2023-01-13T04:26:06.565Z,100355.68
2023-01-13T04:28:36.619Z,100381.98
2023-01-13T04:31:06.594Z,100376.37
2023-01-13T04:33:36.645Z,100373.36
2023-01-13T04:36:08.457Z,100378.84
2023-01-13T04:38:38.257Z,100383.77
2023-01-13T04:41:08.006Z,100379.78
2023-01-13T04:43:37.754Z,100379.78
2023-01-13T04:46:09.980Z,100380.91
2023-01-13T04:48:39.834Z,100380.91
2023-01-13T04:51:09.602Z,100376.44
2023-01-13T04:53:39.356Z,100373.17
2023-01-13T04:56:10.813Z,100378.71
2023-01-13T04:58:40.565Z,100384.53
2023-01-13T05:01:10.488Z,100385.75
2023-01-13T05:03:40.392Z,100372.61
2023-01-13T05:06:11.029Z,100372.61
2023-01-13T05:08:40.810Z,100374.59
2023-01-13T05:11:28.661Z,100372.75
2023-01-13T05:14:15.744Z,100373.91
2023-01-13T05:17:02.187Z,100382.50
2023-01-13T05:19:39.162Z,100388.39
2023-01-13T05:22:28.818Z,100368.77
2023-01-13T05:25:16.296Z,100376.37
2023-01-13T05:27:46.062Z,100357.83
2023-01-13T05:30:16.563Z,100369.65
2023-01-13T05:32:46.647Z,100377.88
2023-01-13T05:35:17.043Z,100377.38
2023-01-13T05:37:47.663Z,100385.68
2023-01-13T05:40:37.374Z,100391.95
2023-01-13T05:43:22.180Z,100392.12
2023-01-13T05:45:54.564Z,100385.64
2023-01-13T05:48:26.502Z,100385.95
2023-01-13T05:50:57.132Z,100393.36
2023-01-13T05:53:27.522Z,100392.70
2023-01-13T05:55:57.401Z,100403.77
2023-01-13T05:58:28.345Z,100383.34
2023-01-13T06:01:03.964Z,100390.48
2023-01-13T06:03:33.912Z,100384.87
2023-01-13T06:06:05.959Z,100384.34
2023-01-13T06:08:38.039Z,100395.73
2023-01-13T06:11:07.793Z,100387.07
2023-01-13T06:13:37.657Z,100396.56
2023-01-13T06:16:10.272Z,100392.91
2023-01-13T06:18:40.076Z,100390.27
2023-01-13T06:21:09.869Z,100392.25
2023-01-13T06:23:39.949Z,100392.41
2023-01-13T06:26:17.386Z,100382.49
2023-01-13T06:28:47.352Z,100388.11
2023-01-13T06:31:17.678Z,100390.06
2023-01-13T06:33:50.909Z,100391.53
2023-01-13T06:36:26.795Z,100390.02
2023-01-13T06:38:59.579Z,100386.46
2023-01-13T06:41:49.787Z,100384.98
2023-01-13T06:44:20.780Z,100397.38
2023-01-13T06:46:52.023Z,100399.00
2023-01-13T06:49:22.006Z,100399.61
2023-01-13T06:51:51.737Z,100406.11
2023-01-13T06:54:21.278Z,100409.01
2023-01-13T06:56:51.040Z,100409.63
2023-01-13T06:59:20.795Z,100410.06
2023-01-13T07:01:51.208Z,100404.67
2023-01-13T07:04:21.114Z,100409.28
2023-01-13T07:06:50.896Z,100395.86
2023-01-13T07:09:20.659Z,100409.84
2023-01-13T07:11:52.054Z,100392.08
2023-01-13T07:14:39.934Z,100408.30
2023-01-13T07:17:09.668Z,100409.27
2023-01-13T07:19:39.482Z,100417.12
2023-01-13T07:22:12.809Z,100405.67
2023-01-13T07:24:42.711Z,100426.38
2023-01-13T07:27:12.762Z,100420.97
2023-01-13T07:29:43.737Z,100417.13
2023-01-13T07:32:13.169Z,100425.08
2023-01-13T07:34:43.062Z,100416.22
2023-01-13T07:37:12.811Z,100414.91
2023-01-13T07:39:42.661Z,100419.15
2023-01-13T07:42:19.592Z,100421.86
2023-01-13T07:44:49.390Z,100416.52
2023-01-13T07:47:20.859Z,100416.52
2023-01-13T07:49:50.832Z,100414.76
2023-01-13T07:52:20.635Z,100424.23
2023-01-13T07:54:50.458Z,100426.45
2023-01-13T07:57:20.510Z,100425.25
2023-01-13T07:59:50.664Z,100440.64
2023-01-13T08:02:20.556Z,100440.64
2023-01-13T08:04:50.606Z,100439.34
2023-01-13T08:07:20.653Z,100436.30
2023-01-13T08:09:50.173Z,100446.64
2023-01-13T08:12:37.160Z,100453.78
2023-01-13T08:15:10.080Z,100454.08
2023-01-13T08:17:39.844Z,100459.42
2023-01-13T08:20:12.152Z,100456.35
2023-01-13T08:22:41.908Z,100448.38
2023-01-13T08:25:11.727Z,100474.76
2023-01-13T08:27:41.642Z,100477.25
2023-01-13T08:30:12.788Z,100471.72
2023-01-13T08:32:45.546Z,100467.01
2023-01-13T08:35:16.100Z,100475.00
2023-01-13T08:37:47.496Z,100474.13
2023-01-13T08:40:19.272Z,100463.45
2023-01-13T08:42:49.139Z,100463.45
2023-01-13T08:45:18.679Z,100475.91
2023-01-13T08:47:48.774Z,100459.12
2023-01-13T08:50:18.712Z,100486.98
2023-01-13T08:52:48.443Z,100476.56
2023-01-13T08:55:18.053Z,100479.55
2023-01-13T08:57:48.021Z,100470.37
2023-01-13T09:00:18.119Z,100470.37
2023-01-13T09:02:48.060Z,100489.62
2023-01-13T09:05:18.018Z,100466.73
2023-01-13T09:07:47.933Z,100479.02
2023-01-13T09:10:17.540Z,100492.13
2023-01-13T09:13:04.922Z,100483.82
2023-01-13T09:15:34.821Z,100485.81
2023-01-13T09:18:05.407Z,100497.61
2023-01-13T09:20:35.188Z,100490.80
2023-01-13T09:23:08.847Z,100503.50
2023-01-13T09:25:37.428Z,100500.74
2023-01-13T09:28:09.739Z,100501.79
2023-01-13T09:30:39.543Z,100494.53
2023-01-13T09:33:27.621Z,100494.53
2023-01-13T09:36:01.036Z,100496.84
2023-01-13T09:38:30.801Z,100503.16
2023-01-13T09:41:00.610Z,100509.53
2023-01-13T09:43:51.298Z,100510.75
2023-01-13T09:46:44.856Z,100521.80
2023-01-13T09:49:26.515Z,100520.38
2023-01-13T09:52:10.519Z,100518.50
2023-01-13T09:55:01.068Z,100556.95
2023-01-13T09:57:33.857Z,100545.08
2023-01-13T10:00:06.770Z,100555.37
2023-01-13T10:02:57.606Z,100555.37
2023-01-13T10:05:32.171Z,100547.00
2023-01-13T10:08:05.467Z,100561.02
2023-01-13T10:10:54.427Z,100559.34
2023-01-13T10:13:29.869Z,100559.14
2023-01-13T10:16:24.846Z,100582.67
2023-01-13T10:19:03.451Z,100570.67
2023-01-13T10:21:55.169Z,100578.22
2023-01-13T10:24:39.386Z,100573.30
2023-01-13T10:27:15.284Z,100584.49
2023-01-13T10:29:44.737Z,100594.20
2023-01-13T10:32:14.491Z,100591.01
2023-01-13T10:34:52.396Z,100594.91
2023-01-13T10:37:27.961Z,100594.78
2023-01-13T10:40:00.768Z,100604.23
2023-01-13T10:42:30.837Z,100597.49
2023-01-13T10:45:03.626Z,100597.10
2023-01-13T10:47:36.694Z,100601.00
2023-01-13T10:50:13.717Z,100609.98
2023-01-13T10:52:58.265Z,100623.90
2023-01-13T10:55:37.884Z,100606.95
2023-01-13T10:58:21.339Z,100618.12
2023-01-13T11:00:52.793Z,100620.92
2023-01-13T11:03:28.148Z,100589.80
2023-01-13T11:06:00.329Z,100589.80
2023-01-13T11:08:33.114Z,100627.06
2023-01-13T11:11:02.963Z,100618.07
2023-01-13T11:13:40.233Z,100631.70
2023-01-13T11:16:19.127Z,100615.53
2023-01-13T11:19:05.259Z,100633.11
2023-01-13T11:21:40.935Z,100625.16
2023-01-13T11:24:23.575Z,100625.20
2023-01-13T11:26:56.383Z,100637.80
2023-01-13T11:29:44.404Z,100638.32
2023-01-13T11:32:23.275Z,100633.57
2023-01-13T11:34:58.588Z,100642.31
2023-01-13T11:37:31.674Z,100641.09
2023-01-13T11:40:12.844Z,100642.60
2023-01-13T11:42:57.515Z,100654.95
2023-01-13T11:45:46.886Z,100659.91
2023-01-13T11:48:20.786Z,100671.65
2023-01-13T11:51:11.317Z,100667.91
2023-01-13T11:54:08.087Z,100668.85
2023-01-13T11:56:48.957Z,100673.12
2023-01-13T11:59:46.991Z,100674.72
2023-01-13T12:02:37.202Z,100669.38
2023-01-13T12:05:17.861Z,100677.09
2023-01-13T12:08:06.007Z,100676.07
2023-01-13T12:10:47.614Z,100685.69
2023-01-13T12:13:32.333Z,100688.48
2023-01-13T12:16:25.622Z,100692.08
2023-01-13T12:19:15.452Z,100688.66
2023-01-13T12:21:56.792Z,100687.64
2023-01-13T12:24:32.175Z,100688.20
2023-01-13T12:27:14.196Z,100688.61
2023-01-13T12:29:45.984Z,100679.31
2023-01-13T12:32:21.890Z,100683.28
2023-01-13T12:35:10.989Z,100688.14
2023-01-13T12:37:52.635Z,100683.07
2023-01-13T12:40:43.734Z,100685.39
2023-01-13T12:43:40.086Z,100687.48
2023-01-13T12:46:24.539Z,100695.22
2023-01-13T12:48:59.817Z,100715.91
2023-01-13T12:54:34.788Z,100716.47
2023-01-13T12:57:16.748Z,100690.05
2023-01-13T12:59:49.442Z,100713.88
2023-01-13T13:02:24.872Z,100713.88
2023-01-13T13:04:57.664Z,100719.88
2023-01-13T13:07:32.727Z,100727.00
2023-01-13T13:10:05.513Z,100729.46
2023-01-13T13:13:04.778Z,100735.78
2023-01-13T13:15:36.299Z,100747.04
2023-01-13T13:18:21.511Z,100741.48
2023-01-13T13:21:04.644Z,100747.94
2023-01-13T13:23:49.042Z,100751.92
2023-01-13T13:26:21.678Z,100752.11
2023-01-13T13:29:03.418Z,100751.27
2023-01-13T13:32:10.260Z,100756.56
2023-01-13T13:34:57.944Z,100755.87
2023-01-13T13:37:30.711Z,100777.49
2023-01-13T13:40:21.185Z,100772.02
2023-01-13T13:43:13.803Z,100770.11
2023-01-13T13:46:04.559Z,100787.13
2023-01-13T13:48:34.475Z,100791.13
2023-01-13T13:51:07.283Z,100798.22
2023-01-13T13:53:42.739Z,100806.02
2023-01-13T13:56:23.924Z,100799.62
2023-01-13T13:58:54.314Z,100812.50
2023-01-13T14:01:33.469Z,100812.16
2023-01-13T14:04:15.223Z,100826.34
2023-01-13T14:06:59.497Z,100821.16
2023-01-13T14:09:31.606Z,100838.66
2023-01-13T14:12:03.889Z,100834.25
2023-01-13T14:14:33.848Z,100831.06
2023-01-13T14:17:05.067Z,100841.95
2023-01-13T14:19:36.564Z,100848.52
2023-01-13T14:22:09.692Z,100857.00
2023-01-13T14:24:42.505Z,100869.56
2023-01-13T14:27:17.898Z,100859.13
2023-01-13T14:29:47.809Z,100859.13
2023-01-13T14:32:20.804Z,100879.60
2023-01-13T14:34:52.128Z,100876.02
2023-01-13T14:37:31.595Z,100872.74
2023-01-13T14:40:01.847Z,100886.34
2023-01-13T14:42:33.314Z,100889.72
2023-01-13T14:45:03.342Z,100893.66
2023-01-13T14:47:34.513Z,100891.93
2023-01-13T14:50:27.656Z,100891.93
2023-01-13T14:53:00.229Z,100890.09
2023-01-13T14:55:38.613Z,100902.81
2023-01-13T14:58:28.387Z,100915.31
2023-01-13T15:01:29.706Z,100914.39
2023-01-13T15:04:20.916Z,100925.68
2023-01-13T15:06:54.147Z,100936.64
2023-01-13T15:09:29.447Z,100937.84
2023-01-13T15:11:59.526Z,100937.28
2023-01-13T15:14:35.905Z,100944.21
2023-01-13T15:17:08.779Z,100949.08
2023-01-13T15:19:38.550Z,100965.78
2023-01-13T15:22:09.461Z,100965.78
2023-01-13T15:24:39.222Z,100961.90
2023-01-13T15:27:14.872Z,100975.39
2023-01-13T15:29:44.395Z,100976.63
2023-01-13T15:32:19.534Z,100976.98
2023-01-13T15:34:49.764Z,100971.66
2023-01-13T15:37:19.660Z,100978.03
2023-01-13T15:39:49.493Z,100980.02
2023-01-13T15:42:36.618Z,101002.72
2023-01-13T15:45:27.225Z,100992.31
2023-01-13T15:47:58.183Z,101007.60
2023-01-13T15:50:28.153Z,101001.03
2023-01-13T15:52:57.996Z,101001.31
2023-01-13T15:55:27.733Z,101001.20
2023-01-13T15:57:57.973Z,101009.94
2023-01-13T16:00:28.025Z,101006.27
2023-01-13T16:02:58.286Z,101020.46
2023-01-13T16:05:28.206Z,101018.91
2023-01-13T16:07:58.234Z,101037.52
2023-01-13T16:10:29.472Z,101045.48
2023-01-13T16:12:59.252Z,101045.48
2023-01-13T16:15:29.268Z,101041.60
2023-01-13T16:18:03.455Z,101044.78
2023-01-13T16:20:33.276Z,101057.02
2023-01-13T16:23:03.072Z,101071.27
2023-01-13T16:25:32.640Z,101064.14
2023-01-13T16:28:02.861Z,101065.60
2023-01-13T16:30:34.663Z,101065.60
2023-01-13T16:33:05.119Z,101074.02
2023-01-13T16:35:35.352Z,101068.87
2023-01-13T16:38:06.435Z,101081.08
2023-01-13T16:40:37.863Z,101092.38
2023-01-13T16:43:07.359Z,101072.41
2023-01-13T16:45:37.265Z,101073.34
2023-01-13T16:48:07.285Z,101083.70
2023-01-13T16:50:40.870Z,101083.38
2023-01-13T16:53:12.168Z,101086.95
2023-01-13T16:55:43.327Z,101090.70
2023-01-13T16:58:19.543Z,101087.78
2023-01-13T17:00:49.719Z,101087.85
2023-01-13T17:03:20.232Z,101100.89
2023-01-13T17:05:50.072Z,101100.89
2023-01-13T17:08:19.875Z,101094.98
2023-01-13T17:10:51.410Z,101103.36
2023-01-13T17:13:21.161Z,101098.58
2023-01-13T17:15:50.672Z,101106.03
2023-01-13T17:18:20.425Z,101124.41
2023-01-13T17:20:50.443Z,101119.03
2023-01-13T17:23:20.236Z,101117.81
2023-01-13T17:25:50.064Z,101131.47
2023-01-13T17:28:19.774Z,101129.38
2023-01-13T17:30:49.549Z,101133.13
2023-01-13T17:33:19.603Z,101134.17
2023-01-13T17:35:49.427Z,101133.86
2023-01-13T17:38:19.177Z,101144.30
2023-01-13T17:40:48.941Z,101155.78
2023-01-13T17:43:18.709Z,101163.45
2023-01-13T17:45:48.479Z,101156.45
2023-01-13T17:48:18.593Z,101160.72
2023-01-13T17:50:52.534Z,101173.38
2023-01-13T17:53:22.662Z,101167.61
2023-01-13T17:55:54.731Z,101171.75
2023-01-13T17:58:24.770Z,101176.96
2023-01-13T18:00:54.695Z,101183.93
2023-01-13T18:03:24.463Z,101182.20
2023-01-13T18:05:54.220Z,101181.42
2023-01-13T18:08:24.464Z,101202.00
2023-01-13T18:10:54.685Z,101196.33
2023-01-13T18:13:24.515Z,101193.14
2023-01-13T18:16:13.792Z,101205.52
2023-01-13T18:18:45.831Z,101210.75
2023-01-13T18:21:44.148Z,101212.44
2023-01-13T18:24:35.626Z,101212.13
2023-01-13T18:27:22.053Z,101214.00
2023-01-13T18:29:52.351Z,101216.26
2023-01-13T18:32:23.476Z,101211.59
2023-01-13T18:35:01.752Z,101219.30
2023-01-13T18:37:26.410Z,101222.54
2023-01-13T18:39:56.151Z,101225.59
2023-01-13T18:42:43.601Z,101231.88
2023-01-13T18:45:13.433Z,101231.88
2023-01-13T18:47:43.356Z,101232.97
2023-01-13T18:50:14.494Z,101232.97
2023-01-13T18:52:44.661Z,101231.09
2023-01-13T18:55:14.866Z,101231.22
2023-01-13T18:57:44.781Z,101229.48
2023-01-13T19:00:17.443Z,101234.00
2023-01-13T19:02:47.882Z,101234.14
2023-01-13T19:05:17.721Z,101243.08
2023-01-13T19:07:49.107Z,101237.69
2023-01-13T19:10:19.472Z,101236.45
2023-01-13T19:12:49.232Z,101241.38
2023-01-13T19:15:19.046Z,101251.28
2023-01-13T19:17:48.606Z,101242.56
2023-01-13T19:20:19.939Z,101246.89
2023-01-13T19:22:51.348Z,101261.31
2023-01-13T19:25:21.136Z,101260.08
2023-01-13T19:27:50.894Z,101261.00
2023-01-13T19:30:20.772Z,101266.83
2023-01-13T19:32:50.541Z,101266.83
2023-01-13T19:35:20.105Z,101268.59
2023-01-13T19:37:50.175Z,101270.52
2023-01-13T19:40:19.991Z,101277.05
2023-01-13T19:42:54.318Z,101284.77
2023-01-13T19:45:26.628Z,101301.23
2023-01-13T19:47:57.735Z,101307.11
2023-01-13T19:50:27.567Z,101328.09
2023-01-13T19:52:57.234Z,101334.15
2023-01-13T19:55:28.074Z,101342.77
2023-01-13T19:57:57.807Z,101342.77
2023-01-13T20:00:27.833Z,101331.31
2023-01-13T20:02:59.284Z,101330.80
2023-01-13T20:05:30.104Z,101335.08
2023-01-13T20:07:59.852Z,101342.39
2023-01-13T20:10:30.570Z,101342.39
2023-01-13T20:13:00.610Z,101349.14
2023-01-13T20:15:30.104Z,101351.02
2023-01-13T20:18:00.695Z,101347.36
2023-01-13T20:20:30.963Z,101356.50
2023-01-13T20:23:01.005Z,101352.98
2023-01-13T20:25:31.050Z,101357.53
2023-01-13T20:28:02.214Z,101360.53
2023-01-13T20:30:31.699Z,101366.16
2023-01-13T20:33:01.514Z,101365.74
2023-01-13T20:35:31.014Z,101355.00
2023-01-13T20:38:01.070Z,101353.08
2023-01-13T20:40:30.828Z,101373.23
2023-01-13T20:43:00.657Z,101373.23
2023-01-13T20:45:30.441Z,101364.23
2023-01-13T20:48:00.185Z,101369.72
2023-01-13T20:50:30.418Z,101364.43
2023-01-13T20:53:00.160Z,101365.45
2023-01-13T20:55:29.985Z,101372.44
2023-01-13T20:57:59.735Z,101384.91
2023-01-13T21:00:29.747Z,101384.95
2023-01-13T21:02:59.845Z,101377.65
2023-01-13T21:05:29.724Z,101388.29
2023-01-13T21:07:59.463Z,101396.07
2023-01-13T21:10:29.154Z,101397.06
2023-01-13T21:13:17.092Z,101395.09
2023-01-13T21:15:49.835Z,101401.74
2023-01-13T21:18:37.156Z,101413.63
2023-01-13T21:21:13.560Z,101405.92
2023-01-13T21:23:46.780Z,101411.51
2023-01-13T21:26:17.038Z,101411.84
2023-01-13T21:28:47.583Z,101417.42
2023-01-13T21:31:18.969Z,101417.41
2023-01-13T21:33:50.265Z,101413.02
2023-01-13T21:36:19.973Z,101421.26
2023-01-13T21:38:57.214Z,101417.18
2023-01-13T21:41:45.650Z,101418.02
2023-01-13T21:44:38.761Z,101417.55
2023-01-13T21:47:37.563Z,101420.88
2023-01-13T21:50:11.104Z,101428.23
2023-01-13T21:52:44.160Z,101435.33
2023-01-13T21:55:19.893Z,101424.08
2023-01-13T21:57:51.345Z,101426.42
2023-01-13T22:00:23.014Z,101426.42
2023-01-13T22:02:53.431Z,101427.78
2023-01-13T22:05:24.995Z,101427.78
2023-01-13T22:07:54.837Z,101438.70
2023-01-13T22:10:27.404Z,101436.78
2023-01-13T22:13:00.246Z,101447.34
2023-01-13T22:15:31.141Z,101452.41
2023-01-13T22:18:01.552Z,101455.64
2023-01-13T22:20:31.302Z,101460.28
2023-01-13T22:23:01.470Z,101456.20
2023-01-13T22:25:31.139Z,101467.03
2023-01-13T22:28:03.240Z,101458.44
2023-01-13T22:30:33.331Z,101473.55
2023-01-13T22:33:03.390Z,101468.25
2023-01-13T22:35:33.128Z,101474.17
2023-01-13T22:38:03.211Z,101473.09
2023-01-13T22:40:32.800Z,101476.45
2023-01-13T22:43:02.871Z,101487.15
2023-01-13T22:45:32.763Z,101488.80
2023-01-13T22:48:02.578Z,101486.38
2023-01-13T22:50:33.930Z,101487.96
2023-01-13T22:53:03.781Z,101482.55
2023-01-13T22:55:33.623Z,101487.70
2023-01-13T22:58:03.763Z,101482.38
2023-01-13T23:00:33.961Z,101482.38
2023-01-13T23:03:05.945Z,101489.39
2023-01-13T23:05:36.088Z,101477.70
2023-01-13T23:08:06.078Z,101485.64
2023-01-13T23:10:36.073Z,101497.16
2023-01-13T23:13:06.417Z,101503.17
2023-01-13T23:15:36.550Z,101498.77
2023-01-13T23:18:06.345Z,101502.98
2023-01-13T23:20:36.884Z,101506.47
2023-01-13T23:23:06.726Z,101510.92
2023-01-13T23:25:36.469Z,101509.43
2023-01-13T23:28:07.258Z,101505.80
2023-01-13T23:30:38.550Z,101504.84
2023-01-13T23:33:08.395Z,101509.24
2023-01-13T23:35:38.156Z,101505.66
2023-01-13T23:38:09.816Z,101499.17
2023-01-13T23:40:39.585Z,101498.53
2023-01-13T23:43:09.348Z,101495.33
2023-01-13T23:45:39.477Z,101488.70
2023-01-13T23:48:10.272Z,101482.06
2023-01-13T23:50:40.054Z,101470.69
2023-01-13T23:53:10.004Z,101470.84
2023-01-13T23:55:39.790Z,101478.48
2023-01-13T23:58:11.496Z,101482.60
